sensor_id;sensor_type;location;lat;lon;timestamp;P1;durP1;ratioP1;P2;durP2;ratioP2
14007;SDS011;61651;45.508;12.232;2023-06-22T00:00:43;8.48;;;7.75;;
14007;SDS011;61651;45.508;12.232;2023-06-22T00:03:45;8.27;;;7.57;;
14007;SDS011;61651;45.508;12.232;2023-06-22T00:06:47;8.52;;;7.72;;
14007;SDS011;61651;45.508;12.232;2023-06-22T00:09:49;8.43;;;7.65;;
14007;SDS011;61651;45.508;12.232;2023-06-22T00:12:51;8.23;;;7.53;;
14007;SDS011;61651;45.508;12.232;2023-06-22T00:15:55;8.27;;;7.68;;
14007;SDS011;61651;45.508;12.232;2023-06-22T00:18:57;8.55;;;7.40;;
14007;SDS011;61651;45.508;12.232;2023-06-22T00:22:00;8.75;;;8.05;;
14007;SDS011;61651;45.508;12.232;2023-06-22T00:25:03;8.00;;;7.20;;
14007;SDS011;61651;45.508;12.232;2023-06-22T00:28:07;8.75;;;8.02;;
14007;SDS011;61651;45.508;12.232;2023-06-22T00:31:10;8.02;;;7.35;;
14007;SDS011;61651;45.508;12.232;2023-06-22T00:34:12;8.57;;;7.80;;
14007;SDS011;61651;45.508;12.232;2023-06-22T00:37:14;8.88;;;8.18;;
14007;SDS011;61651;45.508;12.232;2023-06-22T00:40:16;9.43;;;8.73;;
14007;SDS011;61651;45.508;12.232;2023-06-22T00:43:21;8.75;;;7.95;;
14007;SDS011;61651;45.508;12.232;2023-06-22T00:46:25;9.80;;;9.00;;
14007;SDS011;61651;45.508;12.232;2023-06-22T00:49:27;9.38;;;8.57;;
14007;SDS011;61651;45.508;12.232;2023-06-22T00:52:29;9.50;;;8.65;;
14007;SDS011;61651;45.508;12.232;2023-06-22T00:55:33;9.07;;;8.38;;
14007;SDS011;61651;45.508;12.232;2023-06-22T00:58:38;8.98;;;8.07;;
14007;SDS011;61651;45.508;12.232;2023-06-22T01:01:43;9.77;;;8.88;;
14007;SDS011;61651;45.508;12.232;2023-06-22T01:04:46;9.43;;;8.48;;
14007;SDS011;61651;45.508;12.232;2023-06-22T01:08:00;9.93;;;9.10;;
14007;SDS011;61651;45.508;12.232;2023-06-22T01:11:07;9.27;;;8.38;;
14007;SDS011;61651;45.508;12.232;2023-06-22T01:14:14;10.00;;;9.00;;
14007;SDS011;61651;45.508;12.232;2023-06-22T01:17:21;11.25;;;10.20;;
14007;SDS011;61651;45.508;12.232;2023-06-22T01:20:24;11.93;;;9.90;;
14007;SDS011;61651;45.508;12.232;2023-06-22T01:23:29;10.93;;;10.00;;
14007;SDS011;61651;45.508;12.232;2023-06-22T01:26:43;10.50;;;9.70;;
14007;SDS011;61651;45.508;12.232;2023-06-22T01:29:57;11.95;;;10.90;;
14007;SDS011;61651;45.508;12.232;2023-06-22T01:33:01;11.30;;;10.30;;
14007;SDS011;61651;45.508;12.232;2023-06-22T01:36:05;10.30;;;9.55;;
14007;SDS011;61651;45.508;12.232;2023-06-22T01:39:08;11.52;;;10.57;;
14007;SDS011;61651;45.508;12.232;2023-06-22T01:42:10;10.60;;;9.57;;
14007;SDS011;61651;45.508;12.232;2023-06-22T01:45:14;11.57;;;10.48;;
14007;SDS011;61651;45.508;12.232;2023-06-22T01:48:18;11.98;;;10.80;;
14007;SDS011;61651;45.508;12.232;2023-06-22T01:51:21;11.48;;;10.38;;
14007;SDS011;61651;45.508;12.232;2023-06-22T01:54:23;10.90;;;9.80;;
14007;SDS011;61651;45.508;12.232;2023-06-22T01:57:26;11.52;;;10.48;;
14007;SDS011;61651;45.508;12.232;2023-06-22T02:00:31;12.32;;;11.15;;
14007;SDS011;61651;45.508;12.232;2023-06-22T02:03:37;11.70;;;10.63;;
14007;SDS011;61651;45.508;12.232;2023-06-22T02:06:43;13.73;;;12.32;;
14007;SDS011;61651;45.508;12.232;2023-06-22T02:09:50;12.00;;;11.02;;
14007;SDS011;61651;45.508;12.232;2023-06-22T02:12:54;12.25;;;11.07;;
14007;SDS011;61651;45.508;12.232;2023-06-22T02:15:59;11.70;;;10.50;;
14007;SDS011;61651;45.508;12.232;2023-06-22T02:19:02;12.93;;;10.85;;
14007;SDS011;61651;45.508;12.232;2023-06-22T02:22:06;11.73;;;10.63;;
14007;SDS011;61651;45.508;12.232;2023-06-22T02:25:08;12.80;;;11.68;;
14007;SDS011;61651;45.508;12.232;2023-06-22T02:28:10;13.27;;;12.05;;
14007;SDS011;61651;45.508;12.232;2023-06-22T02:31:13;13.23;;;12.02;;
14007;SDS011;61651;45.508;12.232;2023-06-22T02:34:16;13.68;;;12.48;;
14007;SDS011;61651;45.508;12.232;2023-06-22T02:37:18;13.10;;;11.90;;
14007;SDS011;61651;45.508;12.232;2023-06-22T02:40:20;14.18;;;12.88;;
14007;SDS011;61651;45.508;12.232;2023-06-22T02:43:22;13.48;;;12.07;;
14007;SDS011;61651;45.508;12.232;2023-06-22T02:46:26;13.50;;;12.38;;
14007;SDS011;61651;45.508;12.232;2023-06-22T02:49:28;13.40;;;12.15;;
14007;SDS011;61651;45.508;12.232;2023-06-22T02:52:30;14.45;;;13.00;;
14007;SDS011;61651;45.508;12.232;2023-06-22T02:55:32;14.70;;;13.50;;
14007;SDS011;61651;45.508;12.232;2023-06-22T02:58:34;13.75;;;12.48;;
14007;SDS011;61651;45.508;12.232;2023-06-22T03:01:39;13.52;;;12.32;;
14007;SDS011;61651;45.508;12.232;2023-06-22T03:04:41;13.30;;;12.20;;
14007;SDS011;61651;45.508;12.232;2023-06-22T03:07:44;14.30;;;12.95;;
14007;SDS011;61651;45.508;12.232;2023-06-22T03:10:46;13.35;;;12.25;;
14007;SDS011;61651;45.508;12.232;2023-06-22T03:13:48;13.90;;;12.63;;
14007;SDS011;61651;45.508;12.232;2023-06-22T03:16:53;14.07;;;12.75;;
14007;SDS011;61651;45.508;12.232;2023-06-22T03:20:01;13.63;;;12.52;;
14007;SDS011;61651;45.508;12.232;2023-06-22T03:23:09;13.02;;;11.73;;
14007;SDS011;61651;45.508;12.232;2023-06-22T03:26:11;12.23;;;11.20;;
14007;SDS011;61651;45.508;12.232;2023-06-22T03:29:13;13.85;;;12.73;;
14007;SDS011;61651;45.508;12.232;2023-06-22T03:32:17;15.70;;;14.00;;
14007;SDS011;61651;45.508;12.232;2023-06-22T03:35:19;13.82;;;12.63;;
14007;SDS011;61651;45.508;12.232;2023-06-22T03:38:21;14.43;;;12.93;;
14007;SDS011;61651;45.508;12.232;2023-06-22T03:41:23;14.98;;;13.60;;
14007;SDS011;61651;45.508;12.232;2023-06-22T03:44:25;14.32;;;13.00;;
14007;SDS011;61651;45.508;12.232;2023-06-22T03:47:29;14.50;;;13.27;;
14007;SDS011;61651;45.508;12.232;2023-06-22T03:50:31;13.75;;;12.35;;
14007;SDS011;61651;45.508;12.232;2023-06-22T03:53:33;13.25;;;12.20;;
14007;SDS011;61651;45.508;12.232;2023-06-22T03:56:35;12.35;;;11.40;;
14007;SDS011;61651;45.508;12.232;2023-06-22T03:59:37;13.82;;;12.52;;
14007;SDS011;61651;45.508;12.232;2023-06-22T04:02:40;13.05;;;11.95;;
14007;SDS011;61651;45.508;12.232;2023-06-22T04:05:42;14.35;;;12.93;;
14007;SDS011;61651;45.508;12.232;2023-06-22T04:08:45;13.73;;;12.52;;
14007;SDS011;61651;45.508;12.232;2023-06-22T04:11:51;13.57;;;12.45;;
14007;SDS011;61651;45.508;12.232;2023-06-22T04:14:53;14.38;;;13.07;;
14007;SDS011;61651;45.508;12.232;2023-06-22T04:17:56;16.80;;;15.10;;
14007;SDS011;61651;45.508;12.232;2023-06-22T04:20:58;14.27;;;12.77;;
14007;SDS011;61651;45.508;12.232;2023-06-22T04:24:00;17.25;;;15.65;;
14007;SDS011;61651;45.508;12.232;2023-06-22T04:27:03;18.15;;;15.38;;
14007;SDS011;61651;45.508;12.232;2023-06-22T04:30:06;17.25;;;15.43;;
14007;SDS011;61651;45.508;12.232;2023-06-22T04:33:10;17.42;;;16.02;;
14007;SDS011;61651;45.508;12.232;2023-06-22T04:36:12;19.05;;;17.30;;
14007;SDS011;61651;45.508;12.232;2023-06-22T04:39:15;19.17;;;17.48;;
14007;SDS011;61651;45.508;12.232;2023-06-22T04:42:17;18.27;;;16.48;;
14007;SDS011;61651;45.508;12.232;2023-06-22T04:45:19;18.98;;;15.80;;
14007;SDS011;61651;45.508;12.232;2023-06-22T04:48:23;18.63;;;16.73;;
14007;SDS011;61651;45.508;12.232;2023-06-22T04:51:25;18.65;;;16.95;;
14007;SDS011;61651;45.508;12.232;2023-06-22T04:54:30;19.55;;;17.58;;
14007;SDS011;61651;45.508;12.232;2023-06-22T04:57:32;19.75;;;18.02;;
14007;SDS011;61651;45.508;12.232;2023-06-22T05:00:34;20.55;;;18.63;;
14007;SDS011;61651;45.508;12.232;2023-06-22T05:03:38;19.20;;;17.60;;
14007;SDS011;61651;45.508;12.232;2023-06-22T05:06:41;21.40;;;18.38;;
14007;SDS011;61651;45.508;12.232;2023-06-22T05:09:43;18.73;;;16.92;;
14007;SDS011;61651;45.508;12.232;2023-06-22T05:12:46;18.45;;;16.85;;
14007;SDS011;61651;45.508;12.232;2023-06-22T05:15:48;18.45;;;16.85;;
14007;SDS011;61651;45.508;12.232;2023-06-22T05:19:04;19.23;;;17.60;;
14007;SDS011;61651;45.508;12.232;2023-06-22T05:22:06;18.98;;;17.25;;
14007;SDS011;61651;45.508;12.232;2023-06-22T05:25:09;19.30;;;17.80;;
14007;SDS011;61651;45.508;12.232;2023-06-22T05:28:11;21.52;;;19.42;;
14007;SDS011;61651;45.508;12.232;2023-06-22T05:31:14;21.90;;;20.02;;
14007;SDS011;61651;45.508;12.232;2023-06-22T05:34:18;21.48;;;19.67;;
14007;SDS011;61651;45.508;12.232;2023-06-22T05:37:20;21.77;;;19.98;;
14007;SDS011;61651;45.508;12.232;2023-06-22T05:40:22;23.90;;;21.60;;
14007;SDS011;61651;45.508;12.232;2023-06-22T05:43:24;22.58;;;20.35;;
14007;SDS011;61651;45.508;12.232;2023-06-22T05:46:26;23.38;;;20.88;;
14007;SDS011;61651;45.508;12.232;2023-06-22T05:49:29;25.02;;;23.00;;
14007;SDS011;61651;45.508;12.232;2023-06-22T05:52:32;22.42;;;20.38;;
14007;SDS011;61651;45.508;12.232;2023-06-22T05:55:35;22.05;;;20.17;;
14007;SDS011;61651;45.508;12.232;2023-06-22T05:58:37;19.13;;;17.33;;
14007;SDS011;61651;45.508;12.232;2023-06-22T06:01:39;20.00;;;18.00;;
14007;SDS011;61651;45.508;12.232;2023-06-22T06:04:42;19.15;;;17.52;;
14007;SDS011;61651;45.508;12.232;2023-06-22T06:07:44;19.05;;;17.45;;
14007;SDS011;61651;45.508;12.232;2023-06-22T06:10:47;19.00;;;17.45;;
14007;SDS011;61651;45.508;12.232;2023-06-22T06:13:49;18.10;;;16.50;;
14007;SDS011;61651;45.508;12.232;2023-06-22T06:16:51;17.35;;;15.68;;
14007;SDS011;61651;45.508;12.232;2023-06-22T06:19:54;15.88;;;14.43;;
14007;SDS011;61651;45.508;12.232;2023-06-22T06:22:56;15.55;;;13.93;;
14007;SDS011;61651;45.508;12.232;2023-06-22T06:25:58;15.05;;;13.52;;
14007;SDS011;61651;45.508;12.232;2023-06-22T06:29:01;15.85;;;14.32;;
14007;SDS011;61651;45.508;12.232;2023-06-22T06:32:03;14.32;;;13.13;;
14007;SDS011;61651;45.508;12.232;2023-06-22T06:35:08;16.50;;;13.10;;
14007;SDS011;61651;45.508;12.232;2023-06-22T06:38:11;11.07;;;9.88;;
14007;SDS011;61651;45.508;12.232;2023-06-22T06:41:13;9.43;;;8.18;;
14007;SDS011;61651;45.508;12.232;2023-06-22T06:44:16;8.55;;;7.68;;
14007;SDS011;61651;45.508;12.232;2023-06-22T06:47:18;8.80;;;8.10;;
14007;SDS011;61651;45.508;12.232;2023-06-22T06:50:22;10.57;;;9.63;;
14007;SDS011;61651;45.508;12.232;2023-06-22T06:53:24;10.23;;;9.32;;
14007;SDS011;61651;45.508;12.232;2023-06-22T06:56:26;9.02;;;8.13;;
14007;SDS011;61651;45.508;12.232;2023-06-22T06:59:28;9.13;;;6.50;;
14007;SDS011;61651;45.508;12.232;2023-06-22T07:02:30;9.77;;;9.02;;
14007;SDS011;61651;45.508;12.232;2023-06-22T07:05:33;9.95;;;8.52;;
14007;SDS011;61651;45.508;12.232;2023-06-22T07:08:35;10.15;;;9.15;;
14007;SDS011;61651;45.508;12.232;2023-06-22T07:11:39;11.65;;;8.63;;
14007;SDS011;61651;45.508;12.232;2023-06-22T07:14:41;11.93;;;8.52;;
14007;SDS011;61651;45.508;12.232;2023-06-22T07:17:43;8.27;;;7.47;;
14007;SDS011;61651;45.508;12.232;2023-06-22T07:20:47;8.73;;;8.00;;
14007;SDS011;61651;45.508;12.232;2023-06-22T07:23:49;8.80;;;8.10;;
14007;SDS011;61651;45.508;12.232;2023-06-22T07:26:51;9.27;;;8.23;;
14007;SDS011;61651;45.508;12.232;2023-06-22T07:29:53;8.82;;;7.72;;
14007;SDS011;61651;45.508;12.232;2023-06-22T07:32:56;8.15;;;7.45;;
14007;SDS011;61651;45.508;12.232;2023-06-22T07:36:04;8.23;;;7.43;;
14007;SDS011;61651;45.508;12.232;2023-06-22T07:39:08;8.43;;;7.65;;
14007;SDS011;61651;45.508;12.232;2023-06-22T07:42:10;7.93;;;7.22;;
14007;SDS011;61651;45.508;12.232;2023-06-22T07:45:12;8.70;;;7.95;;
14007;SDS011;61651;45.508;12.232;2023-06-22T07:48:13;9.05;;;7.28;;
14007;SDS011;61651;45.508;12.232;2023-06-22T07:51:17;7.30;;;6.70;;
14007;SDS011;61651;45.508;12.232;2023-06-22T07:54:19;8.32;;;7.53;;
14007;SDS011;61651;45.508;12.232;2023-06-22T07:57:21;8.68;;;7.75;;
14007;SDS011;61651;45.508;12.232;2023-06-22T08:00:23;7.68;;;7.00;;
14007;SDS011;61651;45.508;12.232;2023-06-22T08:03:25;7.97;;;7.03;;
14007;SDS011;61651;45.508;12.232;2023-06-22T08:06:30;7.70;;;6.63;;
14007;SDS011;61651;45.508;12.232;2023-06-22T08:09:33;18.08;;;7.68;;
14007;SDS011;61651;45.508;12.232;2023-06-22T08:12:35;8.10;;;7.30;;
14007;SDS011;61651;45.508;12.232;2023-06-22T08:15:37;13.90;;;8.18;;
14007;SDS011;61651;45.508;12.232;2023-06-22T08:18:40;10.18;;;8.13;;
14007;SDS011;61651;45.508;12.232;2023-06-22T08:21:43;10.10;;;8.27;;
14007;SDS011;61651;45.508;12.232;2023-06-22T08:24:45;8.95;;;8.07;;
14007;SDS011;61651;45.508;12.232;2023-06-22T08:27:47;9.65;;;7.80;;
14007;SDS011;61651;45.508;12.232;2023-06-22T08:30:49;8.15;;;7.35;;
14007;SDS011;61651;45.508;12.232;2023-06-22T08:33:51;9.68;;;7.88;;
14007;SDS011;61651;45.508;12.232;2023-06-22T08:36:55;9.88;;;7.55;;
14007;SDS011;61651;45.508;12.232;2023-06-22T08:39:57;10.25;;;8.07;;
14007;SDS011;61651;45.508;12.232;2023-06-22T08:42:59;7.97;;;7.18;;
14007;SDS011;61651;45.508;12.232;2023-06-22T08:46:01;10.65;;;9.15;;
14007;SDS011;61651;45.508;12.232;2023-06-22T08:49:03;11.48;;;8.50;;
14007;SDS011;61651;45.508;12.232;2023-06-22T08:52:08;12.75;;;8.10;;
14007;SDS011;61651;45.508;12.232;2023-06-22T08:55:10;10.02;;;7.82;;
14007;SDS011;61651;45.508;12.232;2023-06-22T08:58:12;8.48;;;7.68;;
14007;SDS011;61651;45.508;12.232;2023-06-22T09:01:14;9.20;;;7.90;;
14007;SDS011;61651;45.508;12.232;2023-06-22T09:04:16;9.88;;;8.15;;
14007;SDS011;61651;45.508;12.232;2023-06-22T09:07:19;11.75;;;7.13;;
14007;SDS011;61651;45.508;12.232;2023-06-22T09:10:22;13.70;;;7.22;;
14007;SDS011;61651;45.508;12.232;2023-06-22T09:13:24;9.40;;;7.45;;
14007;SDS011;61651;45.508;12.232;2023-06-22T09:16:26;11.18;;;7.78;;
14007;SDS011;61651;45.508;12.232;2023-06-22T09:19:28;8.15;;;7.35;;
14007;SDS011;61651;45.508;12.232;2023-06-22T09:22:32;8.25;;;7.45;;
14007;SDS011;61651;45.508;12.232;2023-06-22T09:25:34;9.43;;;8.18;;
14007;SDS011;61651;45.508;12.232;2023-06-22T09:28:36;8.60;;;7.70;;
14007;SDS011;61651;45.508;12.232;2023-06-22T09:31:38;7.72;;;7.03;;
14007;SDS011;61651;45.508;12.232;2023-06-22T09:34:40;8.32;;;7.60;;
14007;SDS011;61651;45.508;12.232;2023-06-22T09:37:43;9.75;;;7.40;;
14007;SDS011;61651;45.508;12.232;2023-06-22T09:40:45;8.27;;;7.47;;
14007;SDS011;61651;45.508;12.232;2023-06-22T09:43:48;8.68;;;7.72;;
14007;SDS011;61651;45.508;12.232;2023-06-22T09:46:50;11.38;;;7.85;;
14007;SDS011;61651;45.508;12.232;2023-06-22T09:49:52;9.07;;;7.85;;
14007;SDS011;61651;45.508;12.232;2023-06-22T09:52:57;9.32;;;7.18;;
14007;SDS011;61651;45.508;12.232;2023-06-22T09:55:59;8.18;;;7.47;;
14007;SDS011;61651;45.508;12.232;2023-06-22T09:59:01;7.80;;;7.03;;
14007;SDS011;61651;45.508;12.232;2023-06-22T10:02:03;8.75;;;6.97;;
14007;SDS011;61651;45.508;12.232;2023-06-22T10:05:06;7.55;;;6.85;;
14007;SDS011;61651;45.508;12.232;2023-06-22T10:08:10;7.18;;;6.57;;
14007;SDS011;61651;45.508;12.232;2023-06-22T10:11:12;7.60;;;6.63;;
14007;SDS011;61651;45.508;12.232;2023-06-22T10:14:14;7.57;;;6.82;;
14007;SDS011;61651;45.508;12.232;2023-06-22T10:17:16;7.10;;;6.40;;
14007;SDS011;61651;45.508;12.232;2023-06-22T10:20:18;7.00;;;6.35;;
14007;SDS011;61651;45.508;12.232;2023-06-22T10:23:23;7.55;;;6.78;;
14007;SDS011;61651;45.508;12.232;2023-06-22T10:26:25;6.95;;;6.25;;
14007;SDS011;61651;45.508;12.232;2023-06-22T10:29:29;7.18;;;6.15;;
14007;SDS011;61651;45.508;12.232;2023-06-22T10:32:31;9.00;;;6.63;;
14007;SDS011;61651;45.508;12.232;2023-06-22T10:35:33;6.80;;;6.20;;
14007;SDS011;61651;45.508;12.232;2023-06-22T10:38:36;6.63;;;5.93;;
14007;SDS011;61651;45.508;12.232;2023-06-22T10:41:39;6.53;;;5.93;;
14007;SDS011;61651;45.508;12.232;2023-06-22T10:44:40;7.28;;;5.45;;
14007;SDS011;61651;45.508;12.232;2023-06-22T10:47:44;6.38;;;5.78;;
14007;SDS011;61651;45.508;12.232;2023-06-22T10:50:46;7.07;;;5.78;;
14007;SDS011;61651;45.508;12.232;2023-06-22T10:53:49;15.43;;;6.35;;
14007;SDS011;61651;45.508;12.232;2023-06-22T10:56:52;7.00;;;5.43;;
14007;SDS011;61651;45.508;12.232;2023-06-22T10:59:54;6.22;;;5.63;;
14007;SDS011;61651;45.508;12.232;2023-06-22T11:02:56;7.55;;;5.75;;
14007;SDS011;61651;45.508;12.232;2023-06-22T11:05:58;8.60;;;5.68;;
14007;SDS011;61651;45.508;12.232;2023-06-22T11:09:01;7.95;;;5.35;;
14007;SDS011;61651;45.508;12.232;2023-06-22T11:12:05;5.63;;;5.15;;
14007;SDS011;61651;45.508;12.232;2023-06-22T11:15:08;6.38;;;5.53;;
14007;SDS011;61651;45.508;12.232;2023-06-22T11:18:10;7.95;;;5.53;;
14007;SDS011;61651;45.508;12.232;2023-06-22T11:21:12;6.47;;;5.88;;
14007;SDS011;61651;45.508;12.232;2023-06-22T11:24:15;5.47;;;4.97;;
14007;SDS011;61651;45.508;12.232;2023-06-22T11:27:17;6.50;;;5.03;;
14007;SDS011;61651;45.508;12.232;2023-06-22T11:30:19;6.82;;;5.60;;
14007;SDS011;61651;45.508;12.232;2023-06-22T11:33:22;6.13;;;5.53;;
14007;SDS011;61651;45.508;12.232;2023-06-22T11:36:24;8.00;;;5.47;;
14007;SDS011;61651;45.508;12.232;2023-06-22T11:39:28;6.07;;;5.38;;
14007;SDS011;61651;45.508;12.232;2023-06-22T11:42:30;6.57;;;4.90;;
14007;SDS011;61651;45.508;12.232;2023-06-22T11:45:32;5.85;;;5.20;;
14007;SDS011;61651;45.508;12.232;2023-06-22T11:48:34;7.47;;;5.07;;
14007;SDS011;61651;45.508;12.232;2023-06-22T11:51:36;7.90;;;4.78;;
14007;SDS011;61651;45.508;12.232;2023-06-22T11:54:40;5.43;;;4.93;;
14007;SDS011;61651;45.508;12.232;2023-06-22T11:57:52;11.75;;;5.10;;
14007;SDS011;61651;45.508;12.232;2023-06-22T12:00:55;6.28;;;5.68;;
14007;SDS011;61651;45.508;12.232;2023-06-22T12:03:57;5.10;;;4.70;;
14007;SDS011;61651;45.508;12.232;2023-06-22T12:06:59;5.30;;;4.80;;
14007;SDS011;61651;45.508;12.232;2023-06-22T12:10:04;6.85;;;4.82;;
14007;SDS011;61651;45.508;12.232;2023-06-22T12:13:07;5.60;;;4.93;;
14007;SDS011;61651;45.508;12.232;2023-06-22T12:16:09;7.88;;;5.25;;
14007;SDS011;61651;45.508;12.232;2023-06-22T12:19:12;5.28;;;4.78;;
14007;SDS011;61651;45.508;12.232;2023-06-22T12:22:14;8.00;;;5.55;;
14007;SDS011;61651;45.508;12.232;2023-06-22T12:25:17;6.20;;;5.40;;
14007;SDS011;61651;45.508;12.232;2023-06-22T12:28:19;5.47;;;4.97;;
14007;SDS011;61651;45.508;12.232;2023-06-22T12:31:23;7.90;;;4.80;;
14007;SDS011;61651;45.508;12.232;2023-06-22T12:34:25;7.40;;;5.10;;
14007;SDS011;61651;45.508;12.232;2023-06-22T12:37:27;5.15;;;4.65;;
14007;SDS011;61651;45.508;12.232;2023-06-22T12:40:33;6.88;;;5.18;;
14007;SDS011;61651;45.508;12.232;2023-06-22T12:43:35;8.38;;;4.82;;
14007;SDS011;61651;45.508;12.232;2023-06-22T12:46:36;20.90;;;6.18;;
14007;SDS011;61651;45.508;12.232;2023-06-22T12:49:38;7.68;;;5.68;;
14007;SDS011;61651;45.508;12.232;2023-06-22T12:52:40;5.82;;;5.03;;
14007;SDS011;61651;45.508;12.232;2023-06-22T12:55:44;5.57;;;4.88;;
14007;SDS011;61651;45.508;12.232;2023-06-22T12:58:46;9.32;;;5.00;;
14007;SDS011;61651;45.508;12.232;2023-06-22T13:01:48;6.25;;;5.03;;
14007;SDS011;61651;45.508;12.232;2023-06-22T13:04:50;6.50;;;5.03;;
14007;SDS011;61651;45.508;12.232;2023-06-22T13:07:52;6.45;;;4.97;;
14007;SDS011;61651;45.508;12.232;2023-06-22T13:10:55;5.47;;;4.97;;
14007;SDS011;61651;45.508;12.232;2023-06-22T13:13:58;4.97;;;4.55;;
14007;SDS011;61651;45.508;12.232;2023-06-22T13:17:00;7.28;;;4.70;;
14007;SDS011;61651;45.508;12.232;2023-06-22T13:20:02;5.45;;;4.95;;
14007;SDS011;61651;45.508;12.232;2023-06-22T13:23:05;8.20;;;5.05;;
14007;SDS011;61651;45.508;12.232;2023-06-22T13:26:08;8.05;;;4.85;;
14007;SDS011;61651;45.508;12.232;2023-06-22T13:29:10;6.38;;;5.32;;
14007;SDS011;61651;45.508;12.232;2023-06-22T13:32:12;12.38;;;5.32;;
14007;SDS011;61651;45.508;12.232;2023-06-22T13:35:14;9.83;;;5.23;;
14007;SDS011;61651;45.508;12.232;2023-06-22T13:38:16;10.32;;;5.10;;
14007;SDS011;61651;45.508;12.232;2023-06-22T13:41:20;5.95;;;4.50;;
14007;SDS011;61651;45.508;12.232;2023-06-22T13:44:22;9.27;;;4.70;;
14007;SDS011;61651;45.508;12.232;2023-06-22T13:47:28;23.10;;;7.50;;
14007;SDS011;61651;45.508;12.232;2023-06-22T13:50:30;19.23;;;6.53;;
14007;SDS011;61651;45.508;12.232;2023-06-22T13:53:32;6.47;;;5.03;;
14007;SDS011;61651;45.508;12.232;2023-06-22T13:56:35;6.57;;;5.05;;
14007;SDS011;61651;45.508;12.232;2023-06-22T13:59:37;9.43;;;5.10;;
14007;SDS011;61651;45.508;12.232;2023-06-22T14:02:39;16.45;;;6.50;;
14007;SDS011;61651;45.508;12.232;2023-06-22T14:05:41;9.15;;;4.85;;
14007;SDS011;61651;45.508;12.232;2023-06-22T14:08:44;11.38;;;5.15;;
14007;SDS011;61651;45.508;12.232;2023-06-22T14:11:47;12.57;;;5.13;;
14007;SDS011;61651;45.508;12.232;2023-06-22T14:14:49;6.70;;;5.00;;
14007;SDS011;61651;45.508;12.232;2023-06-22T14:17:52;6.38;;;4.90;;
14007;SDS011;61651;45.508;12.232;2023-06-22T14:20:54;13.40;;;5.78;;
14007;SDS011;61651;45.508;12.232;2023-06-22T14:23:56;8.13;;;5.20;;
14007;SDS011;61651;45.508;12.232;2023-06-22T14:26:59;8.13;;;5.15;;
14007;SDS011;61651;45.508;12.232;2023-06-22T14:30:03;6.90;;;4.75;;
14007;SDS011;61651;45.508;12.232;2023-06-22T14:33:06;9.88;;;5.45;;
14007;SDS011;61651;45.508;12.232;2023-06-22T14:36:08;14.07;;;6.30;;
14007;SDS011;61651;45.508;12.232;2023-06-22T14:39:11;7.03;;;5.07;;
14007;SDS011;61651;45.508;12.232;2023-06-22T14:42:14;14.18;;;6.20;;
14007;SDS011;61651;45.508;12.232;2023-06-22T14:45:17;8.32;;;4.90;;
14007;SDS011;61651;45.508;12.232;2023-06-22T14:48:19;8.98;;;5.38;;
14007;SDS011;61651;45.508;12.232;2023-06-22T14:51:21;7.30;;;5.60;;
14007;SDS011;61651;45.508;12.232;2023-06-22T14:54:23;11.93;;;5.53;;
14007;SDS011;61651;45.508;12.232;2023-06-22T14:57:26;8.35;;;5.10;;
14007;SDS011;61651;45.508;12.232;2023-06-22T15:00:28;9.82;;;5.85;;
14007;SDS011;61651;45.508;12.232;2023-06-22T15:03:31;6.57;;;4.88;;
14007;SDS011;61651;45.508;12.232;2023-06-22T15:06:33;6.43;;;5.53;;
14007;SDS011;61651;45.508;12.232;2023-06-22T15:09:35;11.95;;;5.07;;
14007;SDS011;61651;45.508;12.232;2023-06-22T15:12:40;11.48;;;5.03;;
14007;SDS011;61651;45.508;12.232;2023-06-22T15:15:42;6.97;;;5.20;;
14007;SDS011;61651;45.508;12.232;2023-06-22T15:18:44;7.43;;;5.40;;
14007;SDS011;61651;45.508;12.232;2023-06-22T15:21:48;10.43;;;5.20;;
14007;SDS011;61651;45.508;12.232;2023-06-22T15:24:50;10.32;;;5.35;;
14007;SDS011;61651;45.508;12.232;2023-06-22T15:27:54;8.43;;;6.22;;
14007;SDS011;61651;45.508;12.232;2023-06-22T15:30:56;6.80;;;5.50;;
14007;SDS011;61651;45.508;12.232;2023-06-22T15:33:58;6.38;;;5.68;;
14007;SDS011;61651;45.508;12.232;2023-06-22T15:37:02;6.57;;;5.90;;
14007;SDS011;61651;45.508;12.232;2023-06-22T15:40:05;10.25;;;4.88;;
14007;SDS011;61651;45.508;12.232;2023-06-22T15:43:11;8.35;;;5.25;;
14007;SDS011;61651;45.508;12.232;2023-06-22T15:46:14;7.78;;;5.50;;
14007;SDS011;61651;45.508;12.232;2023-06-22T15:49:17;6.25;;;5.50;;
14007;SDS011;61651;45.508;12.232;2023-06-22T15:52:19;7.97;;;5.60;;
14007;SDS011;61651;45.508;12.232;2023-06-22T15:55:21;9.90;;;5.25;;
14007;SDS011;61651;45.508;12.232;2023-06-22T15:58:25;7.05;;;5.43;;
14007;SDS011;61651;45.508;12.232;2023-06-22T16:01:27;7.47;;;5.22;;
14007;SDS011;61651;45.508;12.232;2023-06-22T16:04:29;7.05;;;4.95;;
14007;SDS011;61651;45.508;12.232;2023-06-22T16:07:31;7.22;;;5.95;;
14007;SDS011;61651;45.508;12.232;2023-06-22T16:10:33;11.23;;;6.32;;
14007;SDS011;61651;45.508;12.232;2023-06-22T16:13:37;7.18;;;6.47;;
14007;SDS011;61651;45.508;12.232;2023-06-22T16:16:39;6.32;;;5.20;;
14007;SDS011;61651;45.508;12.232;2023-06-22T16:19:41;8.27;;;5.70;;
14007;SDS011;61651;45.508;12.232;2023-06-22T16:22:43;6.13;;;5.53;;
14007;SDS011;61651;45.508;12.232;2023-06-22T16:25:46;6.85;;;5.80;;
14007;SDS011;61651;45.508;12.232;2023-06-22T16:28:49;9.20;;;5.63;;
14007;SDS011;61651;45.508;12.232;2023-06-22T16:31:51;6.68;;;5.85;;
14007;SDS011;61651;45.508;12.232;2023-06-22T16:34:53;10.25;;;5.80;;
14007;SDS011;61651;45.508;12.232;2023-06-22T16:37:55;8.27;;;5.60;;
14007;SDS011;61651;45.508;12.232;2023-06-22T16:40:57;9.30;;;6.00;;
14007;SDS011;61651;45.508;12.232;2023-06-22T16:44:01;6.30;;;5.70;;
14007;SDS011;61651;45.508;12.232;2023-06-22T16:47:05;11.32;;;5.72;;
14007;SDS011;61651;45.508;12.232;2023-06-22T16:50:08;6.40;;;5.40;;
14007;SDS011;61651;45.508;12.232;2023-06-22T16:53:11;10.60;;;5.47;;
14007;SDS011;61651;45.508;12.232;2023-06-22T16:56:13;6.78;;;5.53;;
14007;SDS011;61651;45.508;12.232;2023-06-22T16:59:17;7.15;;;5.35;;
14007;SDS011;61651;45.508;12.232;2023-06-22T17:02:19;8.70;;;5.32;;
14007;SDS011;61651;45.508;12.232;2023-06-22T17:05:23;9.63;;;5.30;;
14007;SDS011;61651;45.508;12.232;2023-06-22T17:08:28;10.27;;;6.38;;
14007;SDS011;61651;45.508;12.232;2023-06-22T17:11:34;8.50;;;5.40;;
14007;SDS011;61651;45.508;12.232;2023-06-22T17:14:38;6.28;;;5.35;;
14007;SDS011;61651;45.508;12.232;2023-06-22T17:17:44;10.40;;;5.93;;
14007;SDS011;61651;45.508;12.232;2023-06-22T17:20:46;7.68;;;5.50;;
14007;SDS011;61651;45.508;12.232;2023-06-22T17:23:48;8.13;;;6.22;;
14007;SDS011;61651;45.508;12.232;2023-06-22T17:26:52;6.53;;;5.60;;
14007;SDS011;61651;45.508;12.232;2023-06-22T17:30:07;5.88;;;5.07;;
14007;SDS011;61651;45.508;12.232;2023-06-22T17:33:14;6.45;;;5.40;;
14007;SDS011;61651;45.508;12.232;2023-06-22T17:36:19;6.10;;;5.25;;
14007;SDS011;61651;45.508;12.232;2023-06-22T17:39:21;5.78;;;5.00;;
14007;SDS011;61651;45.508;12.232;2023-06-22T17:42:24;7.72;;;5.43;;
14007;SDS011;61651;45.508;12.232;2023-06-22T17:45:30;6.13;;;5.38;;
14007;SDS011;61651;45.508;12.232;2023-06-22T17:48:32;6.22;;;5.57;;
14007;SDS011;61651;45.508;12.232;2023-06-22T17:51:34;6.45;;;5.88;;
14007;SDS011;61651;45.508;12.232;2023-06-22T17:54:38;9.05;;;5.30;;